sensor_id;sensor_type;location;lat;lon;timestamp;pressure;altitude;pressure_sealevel;temperature;humidity
69173;BME280;56280;49.662;8.408;2023-05-17T00:01:16;101262.53;;;8.96;69.85
69173;BME280;56280;49.662;8.408;2023-05-17T00:03:41;101272.97;;;9.13;69.89
69173;BME280;56280;49.662;8.408;2023-05-17T00:06:07;101268.03;;;9.07;69.82
69173;BME280;56280;49.662;8.408;2023-05-17T00:08:32;101259.41;;;9.18;69.46
69173;BME280;56280;49.662;8.408;2023-05-17T00:10:57;101276.72;;;9.24;69.13
69173;BME280;56280;49.662;8.408;2023-05-17T00:13:23;101277.78;;;9.21;69.45
69173;BME280;56280;49.662;8.408;2023-05-17T00:15:48;101288.59;;;9.18;69.62
69173;BME280;56280;49.662;8.408;2023-05-17T00:18:13;101278.53;;;9.09;70.26
69173;BME280;56280;49.662;8.408;2023-05-17T00:20:38;101279.38;;;8.95;70.96
69173;BME280;56280;49.662;8.408;2023-05-17T00:23:04;101280.25;;;8.96;71.08
69173;BME280;56280;49.662;8.408;2023-05-17T00:25:29;101276.63;;;9.25;70.19
69173;BME280;56280;49.662;8.408;2023-05-17T00:27:54;101258.75;;;9.29;69.77
69173;BME280;56280;49.662;8.408;2023-05-17T00:30:19;101279.88;;;9.58;69.98
69173;BME280;56280;49.662;8.408;2023-05-17T00:32:45;101278.03;;;9.45;69.82
69173;BME280;56280;49.662;8.408;2023-05-17T00:35:11;101259.22;;;9.21;70.84
69173;BME280;56280;49.662;8.408;2023-05-17T00:37:37;101288.59;;;9.18;70.96
69173;BME280;56280;49.662;8.408;2023-05-17T00:40:03;101272.59;;;9.05;71.79
69173;BME280;56280;49.662;8.408;2023-05-17T00:42:29;101286.41;;;8.96;72.24
69173;BME280;56280;49.662;8.408;2023-05-17T00:44:55;101285.28;;;9.00;72.49
69173;BME280;56280;49.662;8.408;2023-05-17T00:47:20;101283.75;;;9.10;72.10
69173;BME280;56280;49.662;8.408;2023-05-17T00:49:45;101259.34;;;8.91;72.34
69173;BME280;56280;49.662;8.408;2023-05-17T00:52:11;101293.22;;;9.29;72.36
69173;BME280;56280;49.662;8.408;2023-05-17T00:54:36;101278.25;;;9.28;72.16
69173;BME280;56280;49.662;8.408;2023-05-17T00:57:02;101266.31;;;9.21;72.42
69173;BME280;56280;49.662;8.408;2023-05-17T00:59:28;101273.03;;;9.41;71.83
69173;BME280;56280;49.662;8.408;2023-05-17T01:01:54;101278.91;;;9.31;72.68
69173;BME280;56280;49.662;8.408;2023-05-17T01:04:20;101291.97;;;9.35;72.16
69173;BME280;56280;49.662;8.408;2023-05-17T01:06:45;101289.47;;;9.46;71.74
69173;BME280;56280;49.662;8.408;2023-05-17T01:09:11;101287.25;;;9.67;71.15
69173;BME280;56280;49.662;8.408;2023-05-17T01:14:35;101304.91;;;9.54;71.98
69173;BME280;56280;49.662;8.408;2023-05-17T01:17:15;101280.16;;;9.26;72.56
69173;BME280;56280;49.662;8.408;2023-05-17T01:20:07;101303.53;;;9.19;73.06
69173;BME280;56280;49.662;8.408;2023-05-17T01:22:43;101313.75;;;9.11;73.94
69173;BME280;56280;49.662;8.408;2023-05-17T01:25:27;101308.25;;;9.00;74.11
69173;BME280;56280;49.662;8.408;2023-05-17T01:27:55;101292.84;;;8.92;74.24
69173;BME280;56280;49.662;8.408;2023-05-17T01:30:24;101313.75;;;9.25;73.71
69173;BME280;56280;49.662;8.408;2023-05-17T01:32:50;101310.03;;;9.57;72.81
69173;BME280;56280;49.662;8.408;2023-05-17T01:35:17;101313.78;;;9.67;71.19
69173;BME280;56280;49.662;8.408;2023-05-17T01:37:42;101318.00;;;9.42;72.20
69173;BME280;56280;49.662;8.408;2023-05-17T01:40:08;101329.16;;;9.62;72.16
69173;BME280;56280;49.662;8.408;2023-05-17T01:42:37;101314.31;;;10.14;70.49
69173;BME280;56280;49.662;8.408;2023-05-17T01:48:15;101315.91;;;10.16;68.75
69173;BME280;56280;49.662;8.408;2023-05-17T01:50:47;101308.34;;;10.10;68.81
69173;BME280;56280;49.662;8.408;2023-05-17T01:53:29;101303.78;;;9.85;69.26
69173;BME280;56280;49.662;8.408;2023-05-17T01:56:00;101319.44;;;9.75;69.83
69173;BME280;56280;49.662;8.408;2023-05-17T01:58:28;101324.75;;;9.75;69.90
69173;BME280;56280;49.662;8.408;2023-05-17T02:00:55;101329.19;;;9.47;71.30
69173;BME280;56280;49.662;8.408;2023-05-17T02:03:22;101335.56;;;9.72;70.40
69173;BME280;56280;49.662;8.408;2023-05-17T02:05:48;101323.06;;;9.74;69.82
69173;BME280;56280;49.662;8.408;2023-05-17T02:08:13;101331.31;;;9.70;70.18
69173;BME280;56280;49.662;8.408;2023-05-17T02:10:38;101340.38;;;9.80;69.81
69173;BME280;56280;49.662;8.408;2023-05-17T02:13:04;101334.78;;;9.84;69.64
69173;BME280;56280;49.662;8.408;2023-05-17T02:15:30;101328.19;;;9.77;69.16
69173;BME280;56280;49.662;8.408;2023-05-17T02:17:55;101333.41;;;9.79;68.86
69173;BME280;56280;49.662;8.408;2023-05-17T02:20:20;101341.22;;;9.80;68.24
69173;BME280;56280;49.662;8.408;2023-05-17T02:22:46;101328.97;;;9.65;68.93
69173;BME280;56280;49.662;8.408;2023-05-17T02:25:11;101323.94;;;9.60;69.01
69173;BME280;56280;49.662;8.408;2023-05-17T02:27:36;101347.63;;;9.63;68.98
69173;BME280;56280;49.662;8.408;2023-05-17T02:30:02;101313.00;;;9.38;69.05
69173;BME280;56280;49.662;8.408;2023-05-17T02:32:29;101333.28;;;9.39;68.90
69173;BME280;56280;49.662;8.408;2023-05-17T02:34:55;101352.00;;;9.50;68.69
69173;BME280;56280;49.662;8.408;2023-05-17T02:37:20;101354.56;;;9.52;68.80
69173;BME280;56280;49.662;8.408;2023-05-17T02:39:45;101317.00;;;9.16;69.59
69173;BME280;56280;49.662;8.408;2023-05-17T02:42:11;101355.13;;;9.13;70.66
69173;BME280;56280;49.662;8.408;2023-05-17T02:44:36;101338.47;;;8.97;71.78
69173;BME280;56280;49.662;8.408;2023-05-17T02:47:02;101351.72;;;9.11;70.42
69173;BME280;56280;49.662;8.408;2023-05-17T02:49:27;101362.06;;;9.16;70.13
69173;BME280;56280;49.662;8.408;2023-05-17T02:51:52;101343.59;;;9.00;69.25
69173;BME280;56280;49.662;8.408;2023-05-17T02:54:17;101342.50;;;8.88;70.60
69173;BME280;56280;49.662;8.408;2023-05-17T02:56:43;101336.72;;;8.82;70.68
69173;BME280;56280;49.662;8.408;2023-05-17T02:59:09;101358.72;;;9.12;70.18
69173;BME280;56280;49.662;8.408;2023-05-17T03:01:34;101361.38;;;9.27;70.45
69173;BME280;56280;49.662;8.408;2023-05-17T03:04:00;101357.78;;;8.99;70.84
69173;BME280;56280;49.662;8.408;2023-05-17T03:06:25;101356.44;;;8.78;72.35
69173;BME280;56280;49.662;8.408;2023-05-17T03:08:50;101353.66;;;8.65;72.21
69173;BME280;56280;49.662;8.408;2023-05-17T03:11:15;101341.16;;;8.67;72.38
69173;BME280;56280;49.662;8.408;2023-05-17T03:13:41;101367.41;;;8.86;72.60
69173;BME280;56280;49.662;8.408;2023-05-17T03:16:06;101360.00;;;8.76;73.11
69173;BME280;56280;49.662;8.408;2023-05-17T03:18:33;101382.00;;;8.93;72.96
69173;BME280;56280;49.662;8.408;2023-05-17T03:20:58;101381.03;;;8.80;73.48
69173;BME280;56280;49.662;8.408;2023-05-17T03:23:23;101382.78;;;8.65;73.44
69173;BME280;56280;49.662;8.408;2023-05-17T03:25:49;101374.16;;;8.61;74.54
69173;BME280;56280;49.662;8.408;2023-05-17T03:28:14;101366.16;;;8.47;75.96
69173;BME280;56280;49.662;8.408;2023-05-17T03:30:40;101354.22;;;8.24;76.44
69173;BME280;56280;49.662;8.408;2023-05-17T03:33:05;101381.38;;;8.43;75.91
69173;BME280;56280;49.662;8.408;2023-05-17T03:35:30;101364.91;;;8.22;76.75
69173;BME280;56280;49.662;8.408;2023-05-17T03:37:56;101398.28;;;8.25;76.95
69173;BME280;56280;49.662;8.408;2023-05-17T03:40:21;101391.03;;;8.28;76.33
69173;BME280;56280;49.662;8.408;2023-05-17T03:42:46;101395.72;;;8.23;75.49
69173;BME280;56280;49.662;8.408;2023-05-17T03:45:12;101397.00;;;8.16;76.46
69173;BME280;56280;49.662;8.408;2023-05-17T03:47:37;101384.19;;;8.24;76.30
69173;BME280;56280;49.662;8.408;2023-05-17T03:50:03;101390.34;;;8.40;75.21
69173;BME280;56280;49.662;8.408;2023-05-17T03:52:28;101403.16;;;8.32;76.04
69173;BME280;56280;49.662;8.408;2023-05-17T03:54:53;101387.16;;;8.80;74.44
69173;BME280;56280;49.662;8.408;2023-05-17T03:57:20;101404.25;;;8.90;73.98
69173;BME280;56280;49.662;8.408;2023-05-17T03:59:45;101397.84;;;8.79;74.94
69173;BME280;56280;49.662;8.408;2023-05-17T04:02:11;101400.53;;;8.63;75.33
69173;BME280;56280;49.662;8.408;2023-05-17T04:04:36;101390.44;;;8.23;76.53
69173;BME280;56280;49.662;8.408;2023-05-17T04:07:01;101385.81;;;8.11;76.75
69173;BME280;56280;49.662;8.408;2023-05-17T04:09:26;101405.97;;;8.29;76.46
69173;BME280;56280;49.662;8.408;2023-05-17T04:11:52;101399.66;;;8.48;76.65
69173;BME280;56280;49.662;8.408;2023-05-17T04:14:17;101410.22;;;8.32;76.51
69173;BME280;56280;49.662;8.408;2023-05-17T04:16:43;101393.16;;;8.21;77.16
69173;BME280;56280;49.662;8.408;2023-05-17T04:19:08;101408.53;;;8.31;77.33
69173;BME280;56280;49.662;8.408;2023-05-17T04:21:34;101416.97;;;8.37;76.82
69173;BME280;56280;49.662;8.408;2023-05-17T04:23:59;101411.38;;;8.74;76.07
69173;BME280;56280;49.662;8.408;2023-05-17T04:26:25;101399.34;;;8.99;74.83
69173;BME280;56280;49.662;8.408;2023-05-17T04:28:50;101405.13;;;9.20;73.50
69173;BME280;56280;49.662;8.408;2023-05-17T04:31:16;101426.91;;;9.25;72.72
69173;BME280;56280;49.662;8.408;2023-05-17T04:33:41;101412.72;;;9.26;72.04
69173;BME280;56280;49.662;8.408;2023-05-17T04:36:07;101398.22;;;9.17;72.68
69173;BME280;56280;49.662;8.408;2023-05-17T04:38:32;101420.09;;;9.49;71.85
69173;BME280;56280;49.662;8.408;2023-05-17T04:41:02;101426.94;;;9.39;72.21
69173;BME280;56280;49.662;8.408;2023-05-17T04:43:28;101419.44;;;9.46;72.13
69173;BME280;56280;49.662;8.408;2023-05-17T04:45:57;101408.84;;;9.46;72.12
69173;BME280;56280;49.662;8.408;2023-05-17T04:48:23;101430.16;;;9.59;71.23
69173;BME280;56280;49.662;8.408;2023-05-17T04:50:49;101420.50;;;9.29;72.13
69173;BME280;56280;49.662;8.408;2023-05-17T04:53:15;101436.94;;;9.05;73.06
69173;BME280;56280;49.662;8.408;2023-05-17T04:55:40;101446.94;;;9.00;73.27
69173;BME280;56280;49.662;8.408;2023-05-17T04:58:06;101444.72;;;8.30;75.55
69173;BME280;56280;49.662;8.408;2023-05-17T05:00:31;101435.69;;;8.34;76.73
69173;BME280;56280;49.662;8.408;2023-05-17T05:02:56;101434.47;;;8.56;77.00
69173;BME280;56280;49.662;8.408;2023-05-17T05:05:22;101429.91;;;9.04;75.86
69173;BME280;56280;49.662;8.408;2023-05-17T05:07:49;101449.00;;;9.40;74.21
69173;BME280;56280;49.662;8.408;2023-05-17T05:10:14;101461.06;;;9.60;73.13
69173;BME280;56280;49.662;8.408;2023-05-17T05:12:40;101435.00;;;9.52;72.97
69173;BME280;56280;49.662;8.408;2023-05-17T05:15:05;101459.53;;;9.84;72.90
69173;BME280;56280;49.662;8.408;2023-05-17T05:17:32;101471.41;;;10.35;73.24
69173;BME280;56280;49.662;8.408;2023-05-17T05:19:57;101471.56;;;10.46;73.71
69173;BME280;56280;49.662;8.408;2023-05-17T05:22:23;101468.47;;;11.07;72.30
69173;BME280;56280;49.662;8.408;2023-05-17T05:24:48;101469.56;;;11.94;71.32
69173;BME280;56280;49.662;8.408;2023-05-17T05:27:14;101463.50;;;11.92;67.30
69173;BME280;56280;49.662;8.408;2023-05-17T05:29:39;101485.56;;;11.94;67.75
69173;BME280;56280;49.662;8.408;2023-05-17T05:32:06;101493.19;;;11.22;69.43
69173;BME280;56280;49.662;8.408;2023-05-17T05:34:32;101491.06;;;10.18;71.95
69173;BME280;56280;49.662;8.408;2023-05-17T05:36:57;101489.91;;;10.91;72.57
69173;BME280;56280;49.662;8.408;2023-05-17T05:39:22;101490.75;;;11.70;69.47
69173;BME280;56280;49.662;8.408;2023-05-17T05:41:48;101491.50;;;11.34;71.36
69173;BME280;56280;49.662;8.408;2023-05-17T05:44:13;101486.69;;;11.13;70.72
69173;BME280;56280;49.662;8.408;2023-05-17T05:46:38;101486.63;;;11.92;68.99
69173;BME280;56280;49.662;8.408;2023-05-17T05:49:03;101499.88;;;10.74;68.50
69173;BME280;56280;49.662;8.408;2023-05-17T05:51:29;101507.66;;;10.36;71.77
69173;BME280;56280;49.662;8.408;2023-05-17T05:53:54;101490.13;;;10.61;72.36
69173;BME280;56280;49.662;8.408;2023-05-17T05:56:19;101498.19;;;11.39;69.28
69173;BME280;56280;49.662;8.408;2023-05-17T05:58:45;101494.88;;;11.23;68.35
69173;BME280;56280;49.662;8.408;2023-05-17T06:01:10;101512.72;;;10.68;72.28
69173;BME280;56280;49.662;8.408;2023-05-17T06:03:35;101515.63;;;10.36;72.73
69173;BME280;56280;49.662;8.408;2023-05-17T06:06:01;101514.00;;;10.19;72.81
69173;BME280;56280;49.662;8.408;2023-05-17T06:08:26;101512.50;;;9.72;73.99
69173;BME280;56280;49.662;8.408;2023-05-17T06:10:52;101497.63;;;9.98;74.18
69173;BME280;56280;49.662;8.408;2023-05-17T06:13:17;101503.97;;;9.66;73.72
69173;BME280;56280;49.662;8.408;2023-05-17T06:15:42;101501.44;;;9.94;73.63
69173;BME280;56280;49.662;8.408;2023-05-17T06:18:08;101524.34;;;10.23;73.54
69173;BME280;56280;49.662;8.408;2023-05-17T06:20:33;101531.66;;;10.34;73.36
69173;BME280;56280;49.662;8.408;2023-05-17T06:22:58;101530.03;;;10.46;72.11
69173;BME280;56280;49.662;8.408;2023-05-17T06:25:24;101543.47;;;10.57;73.29
69173;BME280;56280;49.662;8.408;2023-05-17T06:27:49;101519.66;;;10.56;71.78
69173;BME280;56280;49.662;8.408;2023-05-17T06:30:14;101539.34;;;10.81;70.95
69173;BME280;56280;49.662;8.408;2023-05-17T06:32:39;101542.38;;;10.33;71.41
69173;BME280;56280;49.662;8.408;2023-05-17T06:35:06;101543.47;;;10.57;71.68
69173;BME280;56280;49.662;8.408;2023-05-17T06:37:31;101533.44;;;11.56;69.26
69173;BME280;56280;49.662;8.408;2023-05-17T06:40:04;101545.69;;;11.58;67.28
69173;BME280;56280;49.662;8.408;2023-05-17T06:42:31;101549.72;;;11.25;67.14
69173;BME280;56280;49.662;8.408;2023-05-17T06:44:56;101532.47;;;10.91;68.92
69173;BME280;56280;49.662;8.408;2023-05-17T06:47:21;101531.59;;;11.18;69.66
69173;BME280;56280;49.662;8.408;2023-05-17T06:49:46;101519.63;;;11.76;67.49
69173;BME280;56280;49.662;8.408;2023-05-17T06:52:12;101546.91;;;11.14;66.56
69173;BME280;56280;49.662;8.408;2023-05-17T06:54:37;101547.19;;;10.26;69.17
69173;BME280;56280;49.662;8.408;2023-05-17T06:57:02;101547.47;;;10.92;70.11
69173;BME280;56280;49.662;8.408;2023-05-17T06:59:28;101564.41;;;11.44;70.19
69173;BME280;56280;49.662;8.408;2023-05-17T07:01:53;101552.88;;;11.18;69.78
69173;BME280;56280;49.662;8.408;2023-05-17T07:04:19;101540.88;;;11.38;67.98
69173;BME280;56280;49.662;8.408;2023-05-17T07:06:44;101563.59;;;11.56;67.77
69173;BME280;56280;49.662;8.408;2023-05-17T07:09:10;101556.47;;;11.17;68.37
69173;BME280;56280;49.662;8.408;2023-05-17T07:11:35;101566.88;;;10.80;69.55
69173;BME280;56280;49.662;8.408;2023-05-17T07:14:00;101543.47;;;11.12;68.94
69173;BME280;56280;49.662;8.408;2023-05-17T07:16:26;101568.09;;;12.07;67.31
69173;BME280;56280;49.662;8.408;2023-05-17T07:18:51;101567.31;;;11.66;67.85
69173;BME280;56280;49.662;8.408;2023-05-17T07:21:16;101567.44;;;12.16;64.81
69173;BME280;56280;49.662;8.408;2023-05-17T07:23:42;101539.38;;;11.99;64.88
69173;BME280;56280;49.662;8.408;2023-05-17T07:26:07;101558.63;;;12.16;64.68
69173;BME280;56280;49.662;8.408;2023-05-17T07:28:32;101579.69;;;11.80;67.02
69173;BME280;56280;49.662;8.408;2023-05-17T07:30:57;101571.75;;;11.40;65.22
69173;BME280;56280;49.662;8.408;2023-05-17T07:33:23;101588.28;;;11.18;66.53
69173;BME280;56280;49.662;8.408;2023-05-17T07:35:48;101577.88;;;11.28;68.24
69173;BME280;56280;49.662;8.408;2023-05-17T07:38:13;101574.56;;;11.64;67.13
69173;BME280;56280;49.662;8.408;2023-05-17T07:40:38;101572.41;;;11.44;66.21
69173;BME280;56280;49.662;8.408;2023-05-17T07:43:04;101562.19;;;11.63;64.69
69173;BME280;56280;49.662;8.408;2023-05-17T07:45:29;101563.28;;;12.12;65.00
69173;BME280;56280;49.662;8.408;2023-05-17T07:47:54;101559.75;;;12.37;65.32
69173;BME280;56280;49.662;8.408;2023-05-17T07:50:20;101551.75;;;12.37;62.34
69173;BME280;56280;49.662;8.408;2023-05-17T07:52:46;101571.13;;;12.39;63.94
69173;BME280;56280;49.662;8.408;2023-05-17T07:55:12;101574.44;;;12.56;64.73
69173;BME280;56280;49.662;8.408;2023-05-17T07:57:37;101587.03;;;12.28;64.46
69173;BME280;56280;49.662;8.408;2023-05-17T08:00:03;101591.16;;;11.55;63.00
69173;BME280;56280;49.662;8.408;2023-05-17T08:02:28;101568.97;;;11.29;64.96
69173;BME280;56280;49.662;8.408;2023-05-17T08:04:53;101588.03;;;11.36;64.42
69173;BME280;56280;49.662;8.408;2023-05-17T08:07:19;101577.25;;;11.24;65.90
69173;BME280;56280;49.662;8.408;2023-05-17T08:09:44;101574.72;;;11.36;64.66
69173;BME280;56280;49.662;8.408;2023-05-17T08:12:09;101572.16;;;11.34;63.70
69173;BME280;56280;49.662;8.408;2023-05-17T08:14:35;101582.00;;;11.46;64.22
69173;BME280;56280;49.662;8.408;2023-05-17T08:17:00;101566.06;;;11.72;64.58
69173;BME280;56280;49.662;8.408;2023-05-17T08:19:25;101554.66;;;11.70;63.64
69173;BME280;56280;49.662;8.408;2023-05-17T08:21:51;101573.75;;;12.02;63.02
69173;BME280;56280;49.662;8.408;2023-05-17T08:24:16;101537.41;;;12.27;62.43
69173;BME280;56280;49.662;8.408;2023-05-17T08:26:41;101557.91;;;12.38;58.17
69173;BME280;56280;49.662;8.408;2023-05-17T08:29:07;101532.94;;;12.15;59.69
69173;BME280;56280;49.662;8.408;2023-05-17T08:31:32;101549.19;;;12.36;59.94
69173;BME280;56280;49.662;8.408;2023-05-17T08:33:58;101560.63;;;12.62;62.45
69173;BME280;56280;49.662;8.408;2023-05-17T08:36:23;101542.41;;;12.69;59.35
69173;BME280;56280;49.662;8.408;2023-05-17T08:38:48;101580.69;;;11.92;60.09
69173;BME280;56280;49.662;8.408;2023-05-17T08:41:14;101568.25;;;11.65;60.15
69173;BME280;56280;49.662;8.408;2023-05-17T08:43:40;101566.16;;;11.58;59.68
69173;BME280;56280;49.662;8.408;2023-05-17T08:46:06;101552.97;;;11.82;59.49
69173;BME280;56280;49.662;8.408;2023-05-17T08:48:34;101556.78;;;12.29;62.82
69173;BME280;56280;49.662;8.408;2023-05-17T08:51:00;101551.22;;;13.18;62.18
69173;BME280;56280;49.662;8.408;2023-05-17T08:53:27;101562.84;;;12.68;57.10
69173;BME280;56280;49.662;8.408;2023-05-17T08:55:56;101544.84;;;12.72;60.30
69173;BME280;56280;49.662;8.408;2023-05-17T08:58:26;101553.25;;;12.42;57.63
69173;BME280;56280;49.662;8.408;2023-05-17T09:00:53;101527.47;;;12.29;59.52
69173;BME280;56280;49.662;8.408;2023-05-17T09:03:21;101565.31;;;12.21;57.74
69173;BME280;56280;49.662;8.408;2023-05-17T09:05:49;101556.41;;;11.97;61.54
69173;BME280;56280;49.662;8.408;2023-05-17T09:08:14;101542.22;;;11.83;59.88
69173;BME280;56280;49.662;8.408;2023-05-17T09:10:40;101556.38;;;11.84;58.20
69173;BME280;56280;49.662;8.408;2023-05-17T09:13:05;101550.44;;;11.93;60.15
69173;BME280;56280;49.662;8.408;2023-05-17T09:15:31;101564.13;;;11.61;59.76
69173;BME280;56280;49.662;8.408;2023-05-17T09:17:58;101568.81;;;11.58;58.10
69173;BME280;56280;49.662;8.408;2023-05-17T09:20:26;101567.31;;;11.79;60.44
69173;BME280;56280;49.662;8.408;2023-05-17T09:22:59;101547.53;;;11.71;62.44
69173;BME280;56280;49.662;8.408;2023-05-17T09:25:25;101554.34;;;11.75;58.62
69173;BME280;56280;49.662;8.408;2023-05-17T09:27:52;101557.94;;;12.25;60.71
69173;BME280;56280;49.662;8.408;2023-05-17T09:30:17;101563.63;;;12.70;55.76
69173;BME280;56280;49.662;8.408;2023-05-17T09:32:43;101563.19;;;12.64;56.73
69173;BME280;56280;49.662;8.408;2023-05-17T09:35:10;101555.19;;;12.64;57.66
69173;BME280;56280;49.662;8.408;2023-05-17T09:37:37;101562.41;;;12.37;59.26
69173;BME280;56280;49.662;8.408;2023-05-17T09:40:03;101570.47;;;12.49;56.32
69173;BME280;56280;49.662;8.408;2023-05-17T09:42:33;101554.97;;;12.30;57.48
69173;BME280;56280;49.662;8.408;2023-05-17T09:45:01;101556.22;;;12.50;58.63
69173;BME280;56280;49.662;8.408;2023-05-17T09:47:28;101566.19;;;12.96;57.31
69173;BME280;56280;49.662;8.408;2023-05-17T09:49:57;101564.41;;;12.84;58.07
69173;BME280;56280;49.662;8.408;2023-05-17T09:52:25;101546.38;;;12.50;58.60
69173;BME280;56280;49.662;8.408;2023-05-17T09:54:57;101543.47;;;12.90;57.40
69173;BME280;56280;49.662;8.408;2023-05-17T09:57:26;101561.56;;;13.46;56.28
69173;BME280;56280;49.662;8.408;2023-05-17T09:59:54;101548.44;;;13.19;55.96
69173;BME280;56280;49.662;8.408;2023-05-17T10:02:24;101558.69;;;13.61;54.88
69173;BME280;56280;49.662;8.408;2023-05-17T10:04:51;101542.81;;;13.82;53.42
69173;BME280;56280;49.662;8.408;2023-05-17T10:07:18;101537.69;;;12.97;55.02
69173;BME280;56280;49.662;8.408;2023-05-17T10:09:48;101542.16;;;13.20;55.26
69173;BME280;56280;49.662;8.408;2023-05-17T10:12:19;101545.81;;;13.66;53.39
69173;BME280;56280;49.662;8.408;2023-05-17T10:14:46;101529.22;;;13.74;53.48
69173;BME280;56280;49.662;8.408;2023-05-17T10:17:13;101553.69;;;13.21;53.53
69173;BME280;56280;49.662;8.408;2023-05-17T10:19:38;101539.78;;;13.04;55.67
69173;BME280;56280;49.662;8.408;2023-05-17T10:22:05;101544.47;;;13.60;54.58
69173;BME280;56280;49.662;8.408;2023-05-17T10:24:31;101533.75;;;13.49;51.47
69173;BME280;56280;49.662;8.408;2023-05-17T10:26:57;101539.19;;;14.17;49.69
69173;BME280;56280;49.662;8.408;2023-05-17T10:29:22;101537.47;;;14.93;47.79
69173;BME280;56280;49.662;8.408;2023-05-17T10:31:49;101532.19;;;14.71;47.51
69173;BME280;56280;49.662;8.408;2023-05-17T10:34:18;101537.56;;;15.03;47.90
69173;BME280;56280;49.662;8.408;2023-05-17T10:36:43;101515.13;;;15.79;48.36
69173;BME280;56280;49.662;8.408;2023-05-17T10:39:09;101537.22;;;14.30;48.40
69173;BME280;56280;49.662;8.408;2023-05-17T10:41:39;101543.50;;;13.61;53.66
69173;BME280;56280;49.662;8.408;2023-05-17T10:44:06;101551.53;;;12.77;54.21
69173;BME280;56280;49.662;8.408;2023-05-17T10:46:33;101537.69;;;12.97;54.41
69173;BME280;56280;49.662;8.408;2023-05-17T10:49:00;101524.19;;;12.87;53.71
69173;BME280;56280;49.662;8.408;2023-05-17T10:51:30;101539.78;;;13.04;53.88
69173;BME280;56280;49.662;8.408;2023-05-17T10:54:11;101537.56;;;13.58;52.61
69173;BME280;56280;49.662;8.408;2023-05-17T10:56:41;101527.16;;;14.00;53.07
69173;BME280;56280;49.662;8.408;2023-05-17T10:59:24;101507.38;;;14.14;51.36
69173;BME280;56280;49.662;8.408;2023-05-17T11:02:06;101528.09;;;14.21;51.66
69173;BME280;56280;49.662;8.408;2023-05-17T11:04:35;101529.22;;;14.08;52.46
69173;BME280;56280;49.662;8.408;2023-05-17T11:12:32;101534.69;;;14.17;48.79
69173;BME280;56280;49.662;8.408;2023-05-17T11:15:10;101532.09;;;13.59;51.86
69173;BME280;56280;49.662;8.408;2023-05-17T11:17:46;101530.38;;;13.47;50.05
69173;BME280;56280;49.662;8.408;2023-05-17T11:22:54;101543.56;;;13.13;50.49
69173;BME280;56280;49.662;8.408;2023-05-17T11:25:20;101524.56;;;13.18;52.92
69173;BME280;56280;49.662;8.408;2023-05-17T11:27:47;101536.88;;;13.31;52.40
69173;BME280;56280;49.662;8.408;2023-05-17T11:30:25;101530.78;;;14.21;49.10
69173;BME280;56280;49.662;8.408;2023-05-17T11:32:57;101532.13;;;14.27;50.88
69173;BME280;56280;49.662;8.408;2023-05-17T11:35:26;101533.59;;;13.97;50.86
69173;BME280;56280;49.662;8.408;2023-05-17T11:37:52;101534.28;;;14.45;46.28
69173;BME280;56280;49.662;8.408;2023-05-17T11:40:26;101530.91;;;14.09;51.48
69173;BME280;56280;49.662;8.408;2023-05-17T11:43:14;101544.91;;;14.01;49.24
69173;BME280;56280;49.662;8.408;2023-05-17T11:48:16;101530.16;;;13.61;50.49
69173;BME280;56280;49.662;8.408;2023-05-17T11:50:43;101496.28;;;13.96;49.43
69173;BME280;56280;49.662;8.408;2023-05-17T11:53:09;101519.19;;;14.55;47.55
69173;BME280;56280;49.662;8.408;2023-05-17T11:55:39;101525.19;;;14.25;51.50
69173;BME280;56280;49.662;8.408;2023-05-17T11:58:07;101528.22;;;14.98;50.35
69173;BME280;56280;49.662;8.408;2023-05-17T12:00:33;101518.03;;;14.91;47.20
69173;BME280;56280;49.662;8.408;2023-05-17T12:03:22;101513.34;;;15.05;49.13
69173;BME280;56280;49.662;8.408;2023-05-17T12:06:11;101510.06;;;14.80;46.98
69173;BME280;56280;49.662;8.408;2023-05-17T12:08:39;101507.13;;;14.28;50.40
69173;BME280;56280;49.662;8.408;2023-05-17T12:11:06;101484.28;;;15.00;45.17
69173;BME280;56280;49.662;8.408;2023-05-17T12:13:33;101504.28;;;14.41;47.48
69173;BME280;56280;49.662;8.408;2023-05-17T12:16:05;101519.22;;;14.44;47.38
69173;BME280;56280;49.662;8.408;2023-05-17T12:18:35;101506.63;;;14.89;46.35
69173;BME280;56280;49.662;8.408;2023-05-17T12:21:03;101479.13;;;14.87;44.77
69173;BME280;56280;49.662;8.408;2023-05-17T12:23:30;101499.56;;;14.88;46.71
69173;BME280;56280;49.662;8.408;2023-05-17T12:26:09;101494.94;;;15.32;45.36
69173;BME280;56280;49.662;8.408;2023-05-17T12:28:43;101461.50;;;16.10;43.17
69173;BME280;56280;49.662;8.408;2023-05-17T12:31:17;101496.56;;;15.03;46.77
69173;BME280;56280;49.662;8.408;2023-05-17T12:33:43;101472.09;;;14.86;44.91
69173;BME280;56280;49.662;8.408;2023-05-17T12:36:12;101483.47;;;15.42;44.99
69173;BME280;56280;49.662;8.408;2023-05-17T12:38:41;101499.78;;;14.41;48.70
69173;BME280;56280;49.662;8.408;2023-05-17T12:41:10;101478.19;;;14.77;50.50
69173;BME280;56280;49.662;8.408;2023-05-17T12:43:37;101488.03;;;15.30;47.24
69173;BME280;56280;49.662;8.408;2023-05-17T12:46:07;101480.00;;;14.88;46.45
69173;BME280;56280;49.662;8.408;2023-05-17T12:48:35;101467.91;;;15.36;48.15
69173;BME280;56280;49.662;8.408;2023-05-17T12:51:11;101481.88;;;15.60;49.13
69173;BME280;56280;49.662;8.408;2023-05-17T12:53:39;101476.53;;;15.18;45.52
69173;BME280;56280;49.662;8.408;2023-05-17T12:56:05;101474.97;;;14.94;48.06
69173;BME280;56280;49.662;8.408;2023-05-17T12:58:31;101463.53;;;15.77;45.94
69173;BME280;56280;49.662;8.408;2023-05-17T13:00:58;101471.31;;;16.30;45.92
69173;BME280;56280;49.662;8.408;2023-05-17T13:03:24;101463.63;;;16.86;41.67
69173;BME280;56280;49.662;8.408;2023-05-17T13:06:16;101466.03;;;17.08;43.56
69173;BME280;56280;49.662;8.408;2023-05-17T13:08:42;101455.72;;;16.04;44.07
69173;BME280;56280;49.662;8.408;2023-05-17T13:11:09;101460.91;;;15.65;45.70